sensor_id;sensor_type;location;lat;lon;timestamp;P1;durP1;ratioP1;P2;durP2;ratioP2
1376;SDS011;682;52.502;13.488;2023-07-31T00:01:20;3.83;;;1.80;;
1376;SDS011;682;52.502;13.488;2023-07-31T00:03:47;3.50;;;2.30;;
1376;SDS011;682;52.502;13.488;2023-07-31T00:06:16;3.33;;;1.90;;
1376;SDS011;682;52.502;13.488;2023-07-31T00:08:43;4.70;;;2.10;;
1376;SDS011;682;52.502;13.488;2023-07-31T00:11:12;3.83;;;2.50;;
1376;SDS011;682;52.502;13.488;2023-07-31T00:13:40;4.93;;;3.10;;
1376;SDS011;682;52.502;13.488;2023-07-31T00:16:08;4.90;;;2.50;;
1376;SDS011;682;52.502;13.488;2023-07-31T00:18:37;2.17;;;1.97;;
1376;SDS011;682;52.502;13.488;2023-07-31T00:21:04;5.33;;;3.03;;
1376;SDS011;682;52.502;13.488;2023-07-31T00:23:32;2.70;;;1.73;;
1376;SDS011;682;52.502;13.488;2023-07-31T00:25:59;4.87;;;2.37;;
1376;SDS011;682;52.502;13.488;2023-07-31T00:28:28;3.93;;;2.20;;
1376;SDS011;682;52.502;13.488;2023-07-31T00:30:55;3.17;;;2.30;;
1376;SDS011;682;52.502;13.488;2023-07-31T00:33:23;5.90;;;2.07;;
1376;SDS011;682;52.502;13.488;2023-07-31T00:35:50;3.40;;;2.63;;
1376;SDS011;682;52.502;13.488;2023-07-31T00:38:17;3.63;;;2.20;;
1376;SDS011;682;52.502;13.488;2023-07-31T00:40:45;4.30;;;2.30;;
1376;SDS011;682;52.502;13.488;2023-07-31T00:43:12;4.20;;;2.97;;
1376;SDS011;682;52.502;13.488;2023-07-31T00:45:40;3.23;;;2.87;;
1376;SDS011;682;52.502;13.488;2023-07-31T00:48:07;4.63;;;2.73;;
1376;SDS011;682;52.502;13.488;2023-07-31T00:50:34;5.80;;;3.10;;
1376;SDS011;682;52.502;13.488;2023-07-31T00:53:02;4.50;;;3.40;;
1376;SDS011;682;52.502;13.488;2023-07-31T00:55:31;3.80;;;2.40;;
1376;SDS011;682;52.502;13.488;2023-07-31T00:58:02;3.40;;;2.80;;
1376;SDS011;682;52.502;13.488;2023-07-31T01:00:29;4.03;;;2.97;;
1376;SDS011;682;52.502;13.488;2023-07-31T01:02:56;3.47;;;2.37;;
1376;SDS011;682;52.502;13.488;2023-07-31T01:05:24;4.33;;;2.57;;
1376;SDS011;682;52.502;13.488;2023-07-31T01:08:00;3.50;;;2.77;;
1376;SDS011;682;52.502;13.488;2023-07-31T01:10:34;2.70;;;2.50;;
1376;SDS011;682;52.502;13.488;2023-07-31T01:13:09;6.17;;;3.07;;
1376;SDS011;682;52.502;13.488;2023-07-31T01:15:36;3.60;;;3.00;;
1376;SDS011;682;52.502;13.488;2023-07-31T01:18:03;3.77;;;2.50;;
1376;SDS011;682;52.502;13.488;2023-07-31T01:20:31;3.37;;;2.30;;
1376;SDS011;682;52.502;13.488;2023-07-31T01:23:13;5.47;;;3.00;;
1376;SDS011;682;52.502;13.488;2023-07-31T01:26:04;3.50;;;3.20;;
1376;SDS011;682;52.502;13.488;2023-07-31T01:28:40;3.37;;;2.83;;
1376;SDS011;682;52.502;13.488;2023-07-31T01:31:14;3.07;;;2.83;;
1376;SDS011;682;52.502;13.488;2023-07-31T01:33:46;3.20;;;2.90;;
1376;SDS011;682;52.502;13.488;2023-07-31T01:36:14;3.60;;;2.93;;
1376;SDS011;682;52.502;13.488;2023-07-31T01:38:41;4.10;;;3.23;;
1376;SDS011;682;52.502;13.488;2023-07-31T01:41:09;3.80;;;3.00;;
1376;SDS011;682;52.502;13.488;2023-07-31T01:43:38;3.87;;;3.40;;
1376;SDS011;682;52.502;13.488;2023-07-31T01:46:05;3.40;;;3.10;;
1376;SDS011;682;52.502;13.488;2023-07-31T01:48:33;3.37;;;3.07;;
1376;SDS011;682;52.502;13.488;2023-07-31T01:51:02;3.70;;;3.17;;
1376;SDS011;682;52.502;13.488;2023-07-31T01:53:31;3.90;;;3.43;;
1376;SDS011;682;52.502;13.488;2023-07-31T01:55:58;3.87;;;3.47;;
1376;SDS011;682;52.502;13.488;2023-07-31T01:58:27;4.50;;;2.80;;
1376;SDS011;682;52.502;13.488;2023-07-31T02:00:54;3.17;;;2.90;;
1376;SDS011;682;52.502;13.488;2023-07-31T02:03:21;4.27;;;3.00;;
1376;SDS011;682;52.502;13.488;2023-07-31T02:05:48;3.40;;;2.93;;
1376;SDS011;682;52.502;13.488;2023-07-31T02:08:18;5.63;;;3.80;;
1376;SDS011;682;52.502;13.488;2023-07-31T02:10:47;3.90;;;3.50;;
1376;SDS011;682;52.502;13.488;2023-07-31T02:13:14;4.53;;;3.53;;
1376;SDS011;682;52.502;13.488;2023-07-31T02:15:42;4.27;;;3.90;;
1376;SDS011;682;52.502;13.488;2023-07-31T02:18:09;3.60;;;3.30;;
1376;SDS011;682;52.502;13.488;2023-07-31T02:20:36;4.70;;;4.00;;
1376;SDS011;682;52.502;13.488;2023-07-31T02:23:03;4.53;;;3.80;;
1376;SDS011;682;52.502;13.488;2023-07-31T02:25:30;4.80;;;3.80;;
1376;SDS011;682;52.502;13.488;2023-07-31T02:27:57;7.27;;;4.00;;
1376;SDS011;682;52.502;13.488;2023-07-31T02:30:27;4.90;;;4.50;;
1376;SDS011;682;52.502;13.488;2023-07-31T02:32:56;4.07;;;3.63;;
1376;SDS011;682;52.502;13.488;2023-07-31T02:35:23;4.30;;;3.90;;
1376;SDS011;682;52.502;13.488;2023-07-31T02:37:50;6.73;;;5.10;;
1376;SDS011;682;52.502;13.488;2023-07-31T02:40:17;5.93;;;4.30;;
1376;SDS011;682;52.502;13.488;2023-07-31T02:42:44;4.50;;;4.10;;
1376;SDS011;682;52.502;13.488;2023-07-31T02:45:11;5.33;;;3.70;;
1376;SDS011;682;52.502;13.488;2023-07-31T02:47:38;3.90;;;3.50;;
1376;SDS011;682;52.502;13.488;2023-07-31T02:50:07;4.23;;;3.70;;
1376;SDS011;682;52.502;13.488;2023-07-31T02:52:35;4.40;;;3.63;;
1376;SDS011;682;52.502;13.488;2023-07-31T02:55:02;6.70;;;4.33;;
1376;SDS011;682;52.502;13.488;2023-07-31T02:57:29;4.37;;;3.97;;
1376;SDS011;682;52.502;13.488;2023-07-31T02:59:58;6.63;;;4.53;;
1376;SDS011;682;52.502;13.488;2023-07-31T03:02:25;5.00;;;4.50;;
1376;SDS011;682;52.502;13.488;2023-07-31T03:04:52;4.93;;;4.43;;
1376;SDS011;682;52.502;13.488;2023-07-31T03:07:20;5.17;;;4.67;;
1376;SDS011;682;52.502;13.488;2023-07-31T03:09:50;9.07;;;4.60;;
1376;SDS011;682;52.502;13.488;2023-07-31T03:12:17;5.20;;;4.57;;
1376;SDS011;682;52.502;13.488;2023-07-31T03:14:44;6.20;;;4.97;;
1376;SDS011;682;52.502;13.488;2023-07-31T03:17:11;7.63;;;5.10;;
1376;SDS011;682;52.502;13.488;2023-07-31T03:19:38;5.33;;;4.83;;
1376;SDS011;682;52.502;13.488;2023-07-31T03:22:06;7.20;;;5.13;;
1376;SDS011;682;52.502;13.488;2023-07-31T03:24:34;6.67;;;5.97;;
1376;SDS011;682;52.502;13.488;2023-07-31T03:27:01;7.30;;;5.80;;
1376;SDS011;682;52.502;13.488;2023-07-31T03:29:28;6.90;;;6.30;;
1376;SDS011;682;52.502;13.488;2023-07-31T03:31:55;6.27;;;5.77;;
1376;SDS011;682;52.502;13.488;2023-07-31T03:34:22;7.80;;;5.90;;
1376;SDS011;682;52.502;13.488;2023-07-31T03:36:49;6.83;;;5.77;;
1376;SDS011;682;52.502;13.488;2023-07-31T03:39:19;7.20;;;5.80;;
1376;SDS011;682;52.502;13.488;2023-07-31T03:41:48;7.10;;;6.00;;
1376;SDS011;682;52.502;13.488;2023-07-31T03:44:15;7.60;;;5.90;;
1376;SDS011;682;52.502;13.488;2023-07-31T03:46:42;8.33;;;6.40;;
1376;SDS011;682;52.502;13.488;2023-07-31T03:49:09;6.20;;;5.60;;
1376;SDS011;682;52.502;13.488;2023-07-31T03:51:36;7.83;;;5.90;;
1376;SDS011;682;52.502;13.488;2023-07-31T03:54:03;7.70;;;7.00;;
1376;SDS011;682;52.502;13.488;2023-07-31T03:56:30;6.60;;;6.00;;
1376;SDS011;682;52.502;13.488;2023-07-31T03:58:58;7.27;;;6.47;;
1376;SDS011;682;52.502;13.488;2023-07-31T04:01:26;5.80;;;5.27;;
1376;SDS011;682;52.502;13.488;2023-07-31T04:03:53;7.20;;;6.50;;
1376;SDS011;682;52.502;13.488;2023-07-31T04:06:20;8.30;;;6.37;;
1376;SDS011;682;52.502;13.488;2023-07-31T04:08:47;6.33;;;5.70;;
1376;SDS011;682;52.502;13.488;2023-07-31T04:11:14;6.77;;;5.47;;
1376;SDS011;682;52.502;13.488;2023-07-31T04:13:40;6.13;;;5.63;;
1376;SDS011;682;52.502;13.488;2023-07-31T04:16:09;6.80;;;5.87;;
1376;SDS011;682;52.502;13.488;2023-07-31T04:18:36;7.37;;;6.60;;
1376;SDS011;682;52.502;13.488;2023-07-31T04:21:03;6.60;;;6.00;;
1376;SDS011;682;52.502;13.488;2023-07-31T04:23:30;6.03;;;5.53;;
1376;SDS011;682;52.502;13.488;2023-07-31T04:25:57;6.13;;;5.53;;
1376;SDS011;682;52.502;13.488;2023-07-31T04:28:24;6.50;;;5.90;;
1376;SDS011;682;52.502;13.488;2023-07-31T04:30:51;5.60;;;5.10;;
1376;SDS011;682;52.502;13.488;2023-07-31T04:33:20;6.40;;;5.77;;
1376;SDS011;682;52.502;13.488;2023-07-31T04:35:50;5.90;;;5.30;;
1376;SDS011;682;52.502;13.488;2023-07-31T04:38:18;5.87;;;5.37;;
1376;SDS011;682;52.502;13.488;2023-07-31T04:40:44;6.83;;;5.50;;
1376;SDS011;682;52.502;13.488;2023-07-31T04:43:12;6.90;;;5.00;;
1376;SDS011;682;52.502;13.488;2023-07-31T04:45:39;5.90;;;4.60;;
1376;SDS011;682;52.502;13.488;2023-07-31T04:48:08;6.07;;;5.23;;
1376;SDS011;682;52.502;13.488;2023-07-31T04:50:36;6.33;;;5.60;;
1376;SDS011;682;52.502;13.488;2023-07-31T04:53:03;15.87;;;14.20;;
1376;SDS011;682;52.502;13.488;2023-07-31T04:55:30;5.30;;;4.80;;
1376;SDS011;682;52.502;13.488;2023-07-31T04:57:57;6.10;;;5.20;;
1376;SDS011;682;52.502;13.488;2023-07-31T05:00:24;5.77;;;5.27;;
1376;SDS011;682;52.502;13.488;2023-07-31T05:02:52;6.30;;;5.47;;
1376;SDS011;682;52.502;13.488;2023-07-31T05:05:18;6.47;;;5.10;;
1376;SDS011;682;52.502;13.488;2023-07-31T05:07:47;5.03;;;4.53;;
1376;SDS011;682;52.502;13.488;2023-07-31T05:10:14;6.60;;;5.83;;
1376;SDS011;682;52.502;13.488;2023-07-31T05:12:40;5.63;;;5.10;;
1376;SDS011;682;52.502;13.488;2023-07-31T05:15:08;5.40;;;4.80;;
1376;SDS011;682;52.502;13.488;2023-07-31T05:17:35;6.37;;;4.90;;
1376;SDS011;682;52.502;13.488;2023-07-31T05:20:02;5.03;;;4.60;;
1376;SDS011;682;52.502;13.488;2023-07-31T05:22:30;7.50;;;5.60;;
1376;SDS011;682;52.502;13.488;2023-07-31T05:24:58;6.50;;;5.00;;
1376;SDS011;682;52.502;13.488;2023-07-31T05:27:25;5.10;;;4.43;;
1376;SDS011;682;52.502;13.488;2023-07-31T05:29:52;5.03;;;4.53;;
1376;SDS011;682;52.502;13.488;2023-07-31T05:32:19;6.70;;;5.20;;
1376;SDS011;682;52.502;13.488;2023-07-31T05:34:46;5.93;;;4.07;;
1376;SDS011;682;52.502;13.488;2023-07-31T05:37:13;5.30;;;4.80;;
1376;SDS011;682;52.502;13.488;2023-07-31T05:39:40;4.50;;;4.10;;
1376;SDS011;682;52.502;13.488;2023-07-31T05:42:11;5.63;;;4.73;;
1376;SDS011;682;52.502;13.488;2023-07-31T05:44:38;7.63;;;4.70;;
1376;SDS011;682;52.502;13.488;2023-07-31T05:47:05;5.80;;;4.60;;
1376;SDS011;682;52.502;13.488;2023-07-31T05:49:32;6.10;;;4.73;;
1376;SDS011;682;52.502;13.488;2023-07-31T05:51:59;6.63;;;4.57;;
1376;SDS011;682;52.502;13.488;2023-07-31T05:54:25;5.50;;;4.60;;
1376;SDS011;682;52.502;13.488;2023-07-31T05:56:52;5.53;;;3.80;;
1376;SDS011;682;52.502;13.488;2023-07-31T05:59:21;7.60;;;4.07;;
1376;SDS011;682;52.502;13.488;2023-07-31T06:01:48;6.83;;;4.37;;
1376;SDS011;682;52.502;13.488;2023-07-31T06:04:15;5.40;;;4.17;;
1376;SDS011;682;52.502;13.488;2023-07-31T06:06:42;4.63;;;4.03;;
1376;SDS011;682;52.502;13.488;2023-07-31T06:09:09;5.97;;;4.07;;
1376;SDS011;682;52.502;13.488;2023-07-31T06:11:36;5.70;;;4.37;;
1376;SDS011;682;52.502;13.488;2023-07-31T06:14:03;6.13;;;3.87;;
1376;SDS011;682;52.502;13.488;2023-07-31T06:16:32;5.33;;;3.70;;
1376;SDS011;682;52.502;13.488;2023-07-31T06:18:59;5.23;;;3.80;;
1376;SDS011;682;52.502;13.488;2023-07-31T06:21:26;5.83;;;4.77;;
1376;SDS011;682;52.502;13.488;2023-07-31T06:23:53;5.63;;;4.20;;
1376;SDS011;682;52.502;13.488;2023-07-31T06:26:21;4.40;;;4.00;;
1376;SDS011;682;52.502;13.488;2023-07-31T06:28:48;6.43;;;3.60;;
1376;SDS011;682;52.502;13.488;2023-07-31T06:31:15;4.73;;;4.20;;
1376;SDS011;682;52.502;13.488;2023-07-31T06:33:46;6.53;;;4.00;;
1376;SDS011;682;52.502;13.488;2023-07-31T06:36:13;5.03;;;4.03;;
1376;SDS011;682;52.502;13.488;2023-07-31T06:38:41;4.63;;;4.03;;
1376;SDS011;682;52.502;13.488;2023-07-31T06:41:08;3.63;;;3.30;;
1376;SDS011;682;52.502;13.488;2023-07-31T06:43:35;5.13;;;4.33;;
1376;SDS011;682;52.502;13.488;2023-07-31T06:46:04;6.40;;;3.90;;
1376;SDS011;682;52.502;13.488;2023-07-31T06:48:31;4.63;;;3.40;;
1376;SDS011;682;52.502;13.488;2023-07-31T06:51:00;5.77;;;4.20;;
1376;SDS011;682;52.502;13.488;2023-07-31T06:53:27;5.80;;;4.10;;
1376;SDS011;682;52.502;13.488;2023-07-31T06:55:54;5.60;;;4.53;;
1376;SDS011;682;52.502;13.488;2023-07-31T06:58:22;4.40;;;4.00;;
1376;SDS011;682;52.502;13.488;2023-07-31T07:00:49;7.07;;;3.83;;
1376;SDS011;682;52.502;13.488;2023-07-31T07:03:16;4.93;;;3.90;;
1376;SDS011;682;52.502;13.488;2023-07-31T07:05:44;5.00;;;4.50;;
1376;SDS011;682;52.502;13.488;2023-07-31T07:08:12;5.80;;;3.83;;
1376;SDS011;682;52.502;13.488;2023-07-31T07:10:41;5.27;;;3.97;;
1376;SDS011;682;52.502;13.488;2023-07-31T07:13:08;4.80;;;4.00;;
1376;SDS011;682;52.502;13.488;2023-07-31T07:15:37;5.83;;;3.30;;
1376;SDS011;682;52.502;13.488;2023-07-31T07:18:04;6.07;;;3.60;;
1376;SDS011;682;52.502;13.488;2023-07-31T07:20:32;4.60;;;3.70;;
1376;SDS011;682;52.502;13.488;2023-07-31T07:22:59;4.90;;;3.73;;
1376;SDS011;682;52.502;13.488;2023-07-31T07:25:27;5.07;;;3.97;;
1376;SDS011;682;52.502;13.488;2023-07-31T07:27:54;4.30;;;3.67;;
1376;SDS011;682;52.502;13.488;2023-07-31T07:30:21;5.70;;;3.60;;
1376;SDS011;682;52.502;13.488;2023-07-31T07:32:50;4.00;;;3.70;;
1376;SDS011;682;52.502;13.488;2023-07-31T07:35:18;4.80;;;4.10;;
1376;SDS011;682;52.502;13.488;2023-07-31T07:37:47;6.43;;;3.80;;
1376;SDS011;682;52.502;13.488;2023-07-31T07:40:15;3.80;;;3.50;;
1376;SDS011;682;52.502;13.488;2023-07-31T07:42:45;4.97;;;4.47;;
1376;SDS011;682;52.502;13.488;2023-07-31T07:45:11;5.70;;;4.60;;
1376;SDS011;682;52.502;13.488;2023-07-31T07:47:40;5.60;;;3.67;;
1376;SDS011;682;52.502;13.488;2023-07-31T07:50:07;3.83;;;3.53;;
1376;SDS011;682;52.502;13.488;2023-07-31T07:52:35;3.67;;;3.10;;
1376;SDS011;682;52.502;13.488;2023-07-31T07:55:02;5.53;;;3.57;;
1376;SDS011;682;52.502;13.488;2023-07-31T07:57:31;4.97;;;3.83;;
1376;SDS011;682;52.502;13.488;2023-07-31T07:59:59;5.30;;;3.87;;
1376;SDS011;682;52.502;13.488;2023-07-31T08:02:26;4.70;;;3.73;;
1376;SDS011;682;52.502;13.488;2023-07-31T08:04:53;3.57;;;3.27;;
1376;SDS011;682;52.502;13.488;2023-07-31T08:07:20;4.13;;;3.47;;
1376;SDS011;682;52.502;13.488;2023-07-31T08:09:47;3.93;;;3.63;;
1376;SDS011;682;52.502;13.488;2023-07-31T08:12:14;5.10;;;4.27;;
1376;SDS011;682;52.502;13.488;2023-07-31T08:14:41;3.90;;;3.60;;
1376;SDS011;682;52.502;13.488;2023-07-31T08:17:09;3.80;;;3.40;;
1376;SDS011;682;52.502;13.488;2023-07-31T08:19:36;3.27;;;2.70;;
1376;SDS011;682;52.502;13.488;2023-07-31T08:22:03;4.00;;;2.93;;
1376;SDS011;682;52.502;13.488;2023-07-31T08:24:31;2.77;;;2.50;;
1376;SDS011;682;52.502;13.488;2023-07-31T08:26:58;2.77;;;2.57;;
1376;SDS011;682;52.502;13.488;2023-07-31T08:29:25;2.97;;;2.60;;
1376;SDS011;682;52.502;13.488;2023-07-31T08:31:52;3.20;;;2.90;;
1376;SDS011;682;52.502;13.488;2023-07-31T08:34:20;5.10;;;2.90;;
1376;SDS011;682;52.502;13.488;2023-07-31T08:36:47;2.50;;;2.30;;
1376;SDS011;682;52.502;13.488;2023-07-31T08:39:14;3.27;;;2.97;;
1376;SDS011;682;52.502;13.488;2023-07-31T08:41:42;3.83;;;3.43;;
1376;SDS011;682;52.502;13.488;2023-07-31T08:44:09;3.07;;;2.70;;
1376;SDS011;682;52.502;13.488;2023-07-31T08:46:38;3.70;;;2.90;;
1376;SDS011;682;52.502;13.488;2023-07-31T08:49:06;3.37;;;3.07;;
1376;SDS011;682;52.502;13.488;2023-07-31T08:51:37;3.70;;;3.40;;
1376;SDS011;682;52.502;13.488;2023-07-31T08:54:04;3.47;;;3.17;;
1376;SDS011;682;52.502;13.488;2023-07-31T08:56:32;3.27;;;2.97;;
1376;SDS011;682;52.502;13.488;2023-07-31T08:59:02;3.63;;;3.20;;
1376;SDS011;682;52.502;13.488;2023-07-31T09:01:30;3.27;;;3.07;;
1376;SDS011;682;52.502;13.488;2023-07-31T09:03:59;3.07;;;2.60;;
1376;SDS011;682;52.502;13.488;2023-07-31T09:06:30;2.93;;;2.73;;
1376;SDS011;682;52.502;13.488;2023-07-31T09:08:59;3.83;;;2.93;;
1376;SDS011;682;52.502;13.488;2023-07-31T09:11:28;4.20;;;3.63;;
1376;SDS011;682;52.502;13.488;2023-07-31T09:13:56;3.80;;;2.60;;
1376;SDS011;682;52.502;13.488;2023-07-31T09:16:27;4.87;;;3.13;;
1376;SDS011;682;52.502;13.488;2023-07-31T09:18:57;4.03;;;3.20;;
1376;SDS011;682;52.502;13.488;2023-07-31T09:21:27;3.50;;;2.30;;
1376;SDS011;682;52.502;13.488;2023-07-31T09:23:54;2.77;;;2.40;;
1376;SDS011;682;52.502;13.488;2023-07-31T09:26:32;2.47;;;2.23;;
1376;SDS011;682;52.502;13.488;2023-07-31T09:29:00;5.20;;;3.50;;
1376;SDS011;682;52.502;13.488;2023-07-31T09:31:33;2.57;;;2.37;;
1376;SDS011;682;52.502;13.488;2023-07-31T09:34:07;2.00;;;1.90;;
1376;SDS011;682;52.502;13.488;2023-07-31T09:36:39;2.60;;;2.00;;
1376;SDS011;682;52.502;13.488;2023-07-31T09:39:08;3.73;;;2.07;;
1376;SDS011;682;52.502;13.488;2023-07-31T09:41:37;2.27;;;2.07;;
1376;SDS011;682;52.502;13.488;2023-07-31T09:44:05;2.73;;;2.40;;
1376;SDS011;682;52.502;13.488;2023-07-31T09:46:32;2.60;;;1.67;;
1376;SDS011;682;52.502;13.488;2023-07-31T09:49:08;1.77;;;1.67;;
1376;SDS011;682;52.502;13.488;2023-07-31T09:51:36;3.00;;;1.70;;
1376;SDS011;682;52.502;13.488;2023-07-31T09:56:48;6.80;;;4.10;;
1376;SDS011;682;52.502;13.488;2023-07-31T09:59:17;1.57;;;1.13;;
1376;SDS011;682;52.502;13.488;2023-07-31T10:01:46;2.30;;;1.70;;
1376;SDS011;682;52.502;13.488;2023-07-31T10:04:14;2.07;;;1.50;;
1376;SDS011;682;52.502;13.488;2023-07-31T10:06:50;2.70;;;1.70;;
1376;SDS011;682;52.502;13.488;2023-07-31T10:09:21;3.80;;;1.60;;
1376;SDS011;682;52.502;13.488;2023-07-31T10:11:55;2.73;;;2.17;;
1376;SDS011;682;52.502;13.488;2023-07-31T10:14:28;3.63;;;2.60;;
1376;SDS011;682;52.502;13.488;2023-07-31T10:16:57;4.20;;;2.80;;
1376;SDS011;682;52.502;13.488;2023-07-31T10:19:24;4.03;;;3.20;;
1376;SDS011;682;52.502;13.488;2023-07-31T10:21:54;3.23;;;2.93;;
1376;SDS011;682;52.502;13.488;2023-07-31T10:24:22;3.27;;;2.90;;
1376;SDS011;682;52.502;13.488;2023-07-31T10:26:50;3.90;;;2.97;;
1376;SDS011;682;52.502;13.488;2023-07-31T10:29:23;5.63;;;3.40;;
1376;SDS011;682;52.502;13.488;2023-07-31T10:31:51;5.57;;;3.60;;
1376;SDS011;682;52.502;13.488;2023-07-31T10:34:20;5.63;;;3.37;;
1376;SDS011;682;52.502;13.488;2023-07-31T10:36:46;4.13;;;3.80;;
1376;SDS011;682;52.502;13.488;2023-07-31T10:42:11;4.80;;;4.17;;
1376;SDS011;682;52.502;13.488;2023-07-31T10:44:43;5.80;;;5.30;;
1376;SDS011;682;52.502;13.488;2023-07-31T10:47:10;5.40;;;4.30;;
1376;SDS011;682;52.502;13.488;2023-07-31T10:49:44;4.70;;;4.30;;
1376;SDS011;682;52.502;13.488;2023-07-31T10:52:12;5.43;;;4.40;;
1376;SDS011;682;52.502;13.488;2023-07-31T10:54:40;4.40;;;3.90;;
1376;SDS011;682;52.502;13.488;2023-07-31T10:57:19;7.20;;;5.30;;
1376;SDS011;682;52.502;13.488;2023-07-31T10:59:47;5.07;;;4.10;;
1376;SDS011;682;52.502;13.488;2023-07-31T11:02:25;6.70;;;4.73;;
1376;SDS011;682;52.502;13.488;2023-07-31T11:05:07;5.03;;;4.53;;
1376;SDS011;682;52.502;13.488;2023-07-31T11:07:47;4.50;;;3.50;;
1376;SDS011;682;52.502;13.488;2023-07-31T11:10:17;4.60;;;4.07;;
1376;SDS011;682;52.502;13.488;2023-07-31T11:12:46;5.47;;;3.90;;
1376;SDS011;682;52.502;13.488;2023-07-31T11:15:13;5.13;;;4.63;;
1376;SDS011;682;52.502;13.488;2023-07-31T11:17:41;4.60;;;3.67;;
1376;SDS011;682;52.502;13.488;2023-07-31T11:20:08;3.60;;;3.27;;
1376;SDS011;682;52.502;13.488;2023-07-31T11:22:35;4.93;;;3.77;;
1376;SDS011;682;52.502;13.488;2023-07-31T11:25:03;4.47;;;3.83;;
1376;SDS011;682;52.502;13.488;2023-07-31T11:27:30;5.10;;;3.90;;
1376;SDS011;682;52.502;13.488;2023-07-31T11:30:09;4.37;;;3.90;;
1376;SDS011;682;52.502;13.488;2023-07-31T11:32:37;4.10;;;3.80;;
1376;SDS011;682;52.502;13.488;2023-07-31T11:35:05;5.13;;;4.13;;
1376;SDS011;682;52.502;13.488;2023-07-31T11:37:39;6.37;;;4.23;;
1376;SDS011;682;52.502;13.488;2023-07-31T11:40:07;5.47;;;3.10;;
1376;SDS011;682;52.502;13.488;2023-07-31T11:42:38;4.00;;;3.40;;
1376;SDS011;682;52.502;13.488;2023-07-31T11:45:07;4.53;;;3.30;;
1376;SDS011;682;52.502;13.488;2023-07-31T11:47:35;3.20;;;2.67;;
1376;SDS011;682;52.502;13.488;2023-07-31T11:50:05;3.70;;;3.40;;
1376;SDS011;682;52.502;13.488;2023-07-31T11:52:39;3.80;;;3.27;;
1376;SDS011;682;52.502;13.488;2023-07-31T11:55:09;3.90;;;3.50;;
1376;SDS011;682;52.502;13.488;2023-07-31T11:57:37;7.53;;;3.70;;
1376;SDS011;682;52.502;13.488;2023-07-31T12:00:08;3.97;;;3.17;;
1376;SDS011;682;52.502;13.488;2023-07-31T12:02:38;6.20;;;3.70;;
1376;SDS011;682;52.502;13.488;2023-07-31T12:05:06;4.50;;;3.60;;
1376;SDS011;682;52.502;13.488;2023-07-31T12:07:43;3.73;;;3.40;;
1376;SDS011;682;52.502;13.488;2023-07-31T12:10:11;6.00;;;3.90;;
1376;SDS011;682;52.502;13.488;2023-07-31T12:12:38;4.93;;;3.67;;
1376;SDS011;682;52.502;13.488;2023-07-31T12:15:14;5.70;;;3.63;;
1376;SDS011;682;52.502;13.488;2023-07-31T12:17:42;4.43;;;3.43;;
1376;SDS011;682;52.502;13.488;2023-07-31T12:20:09;6.87;;;3.63;;
1376;SDS011;682;52.502;13.488;2023-07-31T12:22:37;5.43;;;3.60;;
1376;SDS011;682;52.502;13.488;2023-07-31T12:25:04;3.67;;;3.30;;
1376;SDS011;682;52.502;13.488;2023-07-31T12:27:32;4.10;;;3.70;;
1376;SDS011;682;52.502;13.488;2023-07-31T12:30:00;3.50;;;3.20;;
1376;SDS011;682;52.502;13.488;2023-07-31T12:32:29;3.30;;;3.00;;
1376;SDS011;682;52.502;13.488;2023-07-31T12:34:59;3.37;;;2.93;;
1376;SDS011;682;52.502;13.488;2023-07-31T12:37:28;3.80;;;3.40;;
1376;SDS011;682;52.502;13.488;2023-07-31T12:39:57;3.50;;;3.20;;
1376;SDS011;682;52.502;13.488;2023-07-31T12:42:30;4.90;;;3.93;;
1376;SDS011;682;52.502;13.488;2023-07-31T12:44:57;3.30;;;2.90;;
1376;SDS011;682;52.502;13.488;2023-07-31T12:47:24;4.13;;;3.17;;
1376;SDS011;682;52.502;13.488;2023-07-31T12:49:53;4.47;;;3.40;;
1376;SDS011;682;52.502;13.488;2023-07-31T12:52:20;3.80;;;3.20;;
1376;SDS011;682;52.502;13.488;2023-07-31T12:54:47;5.67;;;3.47;;
1376;SDS011;682;52.502;13.488;2023-07-31T12:57:14;5.43;;;3.77;;
1376;SDS011;682;52.502;13.488;2023-07-31T12:59:40;2.63;;;2.43;;
1376;SDS011;682;52.502;13.488;2023-07-31T13:02:08;4.43;;;3.30;;
1376;SDS011;682;52.502;13.488;2023-07-31T13:04:35;2.90;;;2.70;;
1376;SDS011;682;52.502;13.488;2023-07-31T13:07:04;3.97;;;2.60;;
1376;SDS011;682;52.502;13.488;2023-07-31T13:09:34;2.47;;;2.27;;
1376;SDS011;682;52.502;13.488;2023-07-31T13:12:01;2.73;;;1.73;;
1376;SDS011;682;52.502;13.488;2023-07-31T13:14:29;2.83;;;2.57;;
1376;SDS011;682;52.502;13.488;2023-07-31T13:16:55;2.50;;;1.97;;
1376;SDS011;682;52.502;13.488;2023-07-31T13:19:22;3.70;;;2.47;;
1376;SDS011;682;52.502;13.488;2023-07-31T13:21:51;2.50;;;2.30;;
1376;SDS011;682;52.502;13.488;2023-07-31T13:24:19;4.60;;;2.10;;
1376;SDS011;682;52.502;13.488;2023-07-31T13:26:46;3.03;;;2.50;;
1376;SDS011;682;52.502;13.488;2023-07-31T13:29:13;3.27;;;2.90;;
1376;SDS011;682;52.502;13.488;2023-07-31T13:31:40;4.50;;;2.90;;
1376;SDS011;682;52.502;13.488;2023-07-31T13:34:07;3.07;;;2.77;;
1376;SDS011;682;52.502;13.488;2023-07-31T13:36:34;7.10;;;3.67;;
1376;SDS011;682;52.502;13.488;2023-07-31T13:39:02;3.93;;;3.17;;
1376;SDS011;682;52.502;13.488;2023-07-31T13:41:31;5.23;;;4.43;;
1376;SDS011;682;52.502;13.488;2023-07-31T13:43:58;3.83;;;3.20;;
1376;SDS011;682;52.502;13.488;2023-07-31T13:46:25;3.63;;;3.33;;
1376;SDS011;682;52.502;13.488;2023-07-31T13:48:52;3.87;;;3.50;;
1376;SDS011;682;52.502;13.488;2023-07-31T13:51:20;7.23;;;3.33;;
1376;SDS011;682;52.502;13.488;2023-07-31T13:53:51;4.13;;;3.50;;
1376;SDS011;682;52.502;13.488;2023-07-31T13:56:17;3.80;;;3.10;;
1376;SDS011;682;52.502;13.488;2023-07-31T13:58:49;4.03;;;3.10;;
1376;SDS011;682;52.502;13.488;2023-07-31T14:01:16;3.87;;;3.50;;
1376;SDS011;682;52.502;13.488;2023-07-31T14:03:43;3.70;;;3.40;;
1376;SDS011;682;52.502;13.488;2023-07-31T14:06:10;3.93;;;3.53;;
1376;SDS011;682;52.502;13.488;2023-07-31T14:08:37;3.93;;;3.23;;
1376;SDS011;682;52.502;13.488;2023-07-31T14:11:04;4.87;;;4.33;;
1376;SDS011;682;52.502;13.488;2023-07-31T14:13:31;11.20;;;9.77;;
1376;SDS011;682;52.502;13.488;2023-07-31T14:16:00;4.17;;;3.40;;
1376;SDS011;682;52.502;13.488;2023-07-31T14:18:28;4.90;;;4.17;;
1376;SDS011;682;52.502;13.488;2023-07-31T14:20:55;3.20;;;2.87;;
1376;SDS011;682;52.502;13.488;2023-07-31T14:23:22;3.93;;;3.63;;
1376;SDS011;682;52.502;13.488;2023-07-31T14:25:50;5.63;;;3.80;;
1376;SDS011;682;52.502;13.488;2023-07-31T14:28:17;5.63;;;3.63;;
1376;SDS011;682;52.502;13.488;2023-07-31T14:30:45;4.07;;;3.50;;
1376;SDS011;682;52.502;13.488;2023-07-31T14:33:13;3.97;;;3.57;;
1376;SDS011;682;52.502;13.488;2023-07-31T14:35:40;4.60;;;4.17;;
1376;SDS011;682;52.502;13.488;2023-07-31T14:38:07;5.13;;;3.70;;
1376;SDS011;682;52.502;13.488;2023-07-31T14:40:34;4.90;;;4.40;;
1376;SDS011;682;52.502;13.488;2023-07-31T14:43:03;3.70;;;3.30;;
1376;SDS011;682;52.502;13.488;2023-07-31T14:45:30;3.50;;;3.03;;
1376;SDS011;682;52.502;13.488;2023-07-31T14:47:57;3.97;;;3.60;;
1376;SDS011;682;52.502;13.488;2023-07-31T14:50:26;4.80;;;3.33;;
1376;SDS011;682;52.502;13.488;2023-07-31T14:52:53;6.00;;;5.20;;
1376;SDS011;682;52.502;13.488;2023-07-31T14:55:20;3.60;;;3.30;;
1376;SDS011;682;52.502;13.488;2023-07-31T14:57:47;4.00;;;3.60;;
1376;SDS011;682;52.502;13.488;2023-07-31T15:00:14;3.90;;;3.33;;
1376;SDS011;682;52.502;13.488;2023-07-31T15:02:41;4.10;;;3.00;;
1376;SDS011;682;52.502;13.488;2023-07-31T15:05:08;3.63;;;3.33;;
1376;SDS011;682;52.502;13.488;2023-07-31T15:07:37;6.60;;;3.63;;
1376;SDS011;682;52.502;13.488;2023-07-31T15:10:04;4.30;;;3.90;;
1376;SDS011;682;52.502;13.488;2023-07-31T15:12:32;4.67;;;3.90;;
1376;SDS011;682;52.502;13.488;2023-07-31T15:14:59;4.53;;;3.90;;
1376;SDS011;682;52.502;13.488;2023-07-31T15:17:26;3.40;;;3.10;;
1376;SDS011;682;52.502;13.488;2023-07-31T15:19:55;4.40;;;4.00;;
1376;SDS011;682;52.502;13.488;2023-07-31T15:22:22;5.83;;;3.67;;
1376;SDS011;682;52.502;13.488;2023-07-31T15:24:51;4.97;;;4.30;;
1376;SDS011;682;52.502;13.488;2023-07-31T15:27:18;6.93;;;4.57;;